createdAt,value
2023-03-24T00:03:28.142Z,711.00
2023-03-24T00:08:26.237Z,695.00
2023-03-24T00:13:26.686Z,693.00
2023-03-24T00:18:25.827Z,695.00
2023-03-24T00:23:25.963Z,728.00
2023-03-24T00:28:24.258Z,701.00
2023-03-24T00:33:23.513Z,696.00
2023-03-24T00:38:22.773Z,696.00
2023-03-24T00:43:22.069Z,703.00
2023-03-24T00:48:20.412Z,694.00
2023-03-24T00:53:20.718Z,712.00
2023-03-24T00:58:19.977Z,680.00
2023-03-24T01:03:19.296Z,682.00
2023-03-24T01:08:18.575Z,674.00
2023-03-24T01:13:17.895Z,668.00
2023-03-24T01:18:17.067Z,671.00
2023-03-24T01:23:17.207Z,669.00
2023-03-24T01:28:14.350Z,657.00
2023-03-24T01:33:14.584Z,657.00
2023-03-24T01:38:13.768Z,655.00
2023-03-24T01:43:12.913Z,652.00
2023-03-24T01:48:12.179Z,652.00
2023-03-24T01:53:11.464Z,666.00
2023-03-24T01:58:10.577Z,666.00
2023-03-24T02:03:09.907Z,660.00
2023-03-24T02:08:09.159Z,661.00
2023-03-24T02:13:08.459Z,663.00
2023-03-24T02:18:08.180Z,663.00
2023-03-24T02:23:07.975Z,662.00
2023-03-24T02:28:06.263Z,672.00
2023-03-24T02:33:05.627Z,671.00
2023-03-24T02:38:04.877Z,664.00
2023-03-24T02:43:04.011Z,681.00
2023-03-24T02:48:03.348Z,681.00
2023-03-24T02:53:02.633Z,674.00
2023-03-24T02:58:02.023Z,666.00
2023-03-24T03:03:01.189Z,661.00
2023-03-24T03:08:00.371Z,664.00
2023-03-24T03:12:59.533Z,653.00
2023-03-24T03:17:58.804Z,656.00
2023-03-24T03:22:58.006Z,650.00
2023-03-24T03:27:56.403Z,646.00
2023-03-24T03:32:56.561Z,646.00
2023-03-24T03:37:54.683Z,647.00
2023-03-24T03:42:55.129Z,644.00
2023-03-24T03:47:54.335Z,653.00
2023-03-24T03:52:54.482Z,659.00
2023-03-24T03:57:52.842Z,657.00
2023-03-24T04:02:52.714Z,664.00
2023-03-24T04:07:50.100Z,668.00
2023-03-24T04:12:50.437Z,662.00
2023-03-24T04:17:49.733Z,660.00
2023-03-24T04:22:49.059Z,667.00
2023-03-24T04:27:48.369Z,666.00
2023-03-24T04:32:47.783Z,655.00
2023-03-24T04:37:45.888Z,663.00
2023-03-24T04:42:46.209Z,658.00
2023-03-24T04:47:45.562Z,654.00
2023-03-24T04:52:45.846Z,652.00
2023-03-24T04:57:44.175Z,649.00
2023-03-24T05:02:42.728Z,656.00
2023-03-24T05:07:42.691Z,660.00
2023-03-24T05:12:40.920Z,662.00
2023-03-24T05:17:40.038Z,659.00
2023-03-24T05:22:40.166Z,666.00
2023-03-24T05:27:39.644Z,661.00
2023-03-24T05:32:38.806Z,662.00
2023-03-24T05:37:37.972Z,654.00
2023-03-24T05:42:37.118Z,663.00
2023-03-24T05:47:36.278Z,656.00
2023-03-24T05:52:35.583Z,658.00
2023-03-24T05:57:35.736Z,660.00
2023-03-24T06:02:33.892Z,664.00
2023-03-24T06:07:33.042Z,664.00
2023-03-24T06:12:32.363Z,663.00
2023-03-24T06:17:30.525Z,673.00
2023-03-24T06:22:29.657Z,673.00
2023-03-24T06:27:29.959Z,664.00
2023-03-24T06:32:30.306Z,667.00
2023-03-24T06:37:29.578Z,665.00
2023-03-24T06:42:28.857Z,658.00
2023-03-24T06:47:27.221Z,642.00
2023-03-24T06:52:26.300Z,643.00
2023-03-24T06:57:25.664Z,650.00
2023-03-24T07:02:24.798Z,637.00
2023-03-24T07:12:23.234Z,634.00
2023-03-24T07:17:23.733Z,628.00
2023-03-24T07:22:21.722Z,632.00
2023-03-24T07:27:22.103Z,634.00
2023-03-24T07:32:20.263Z,625.00
2023-03-24T07:37:18.342Z,626.00
2023-03-24T07:42:19.690Z,625.00
2023-03-24T07:47:17.010Z,623.00
2023-03-24T07:52:17.150Z,624.00
2023-03-24T07:57:16.526Z,629.00
2023-03-24T08:02:15.754Z,628.00
2023-03-24T08:07:14.836Z,632.00
2023-03-24T08:12:20.525Z,643.00
2023-03-24T08:17:13.293Z,642.00
2023-03-24T08:22:13.574Z,647.00
2023-03-24T08:27:10.847Z,632.00
2023-03-24T08:32:12.136Z,636.00
2023-03-24T08:37:10.415Z,639.00
2023-03-24T08:42:09.674Z,646.00
2023-03-24T08:47:09.941Z,642.00
2023-03-24T08:52:08.184Z,646.00
2023-03-24T08:57:07.511Z,649.00
2023-03-24T09:02:06.770Z,640.00
2023-03-24T09:07:07.083Z,643.00
2023-03-24T09:12:06.358Z,645.00
2023-03-24T09:17:04.640Z,648.00
2023-03-24T09:22:04.894Z,646.00
2023-03-24T09:27:04.163Z,641.00
2023-03-24T09:32:02.423Z,640.00
2023-03-24T09:37:01.685Z,640.00
2023-03-24T09:42:01.983Z,648.00
2023-03-24T09:47:01.241Z,632.00
2023-03-24T09:52:00.511Z,632.00
2023-03-24T09:56:59.859Z,635.00
2023-03-24T10:01:58.940Z,633.00
2023-03-24T10:06:57.221Z,634.00
2023-03-24T10:11:56.548Z,639.00
2023-03-24T10:16:55.830Z,636.00
2023-03-24T10:21:56.179Z,628.00
2023-03-24T10:26:54.292Z,625.00
2023-03-24T10:31:54.623Z,621.00
2023-03-24T10:36:53.724Z,625.00
2023-03-24T10:41:52.038Z,627.00
2023-03-24T10:46:51.316Z,624.00
2023-03-24T10:51:51.581Z,622.00
2023-03-24T10:56:50.915Z,616.00
2023-03-24T11:01:49.058Z,617.00
2023-03-24T11:06:50.191Z,615.00
2023-03-24T11:11:48.455Z,617.00
2023-03-24T11:16:47.777Z,616.00
2023-03-24T11:21:46.048Z,621.00
2023-03-24T11:26:46.379Z,610.00
2023-03-24T11:31:46.783Z,616.00
2023-03-24T11:36:46.432Z,616.00
2023-03-24T11:41:43.099Z,621.00
2023-03-24T11:46:42.442Z,612.00
2023-03-24T11:51:41.532Z,619.00
2023-03-24T11:56:40.828Z,620.00
2023-03-24T12:01:40.168Z,619.00
2023-03-24T12:06:40.253Z,617.00
2023-03-24T12:11:38.584Z,618.00
2023-03-24T12:16:40.159Z,619.00
2023-03-24T12:21:37.863Z,618.00
2023-03-24T12:26:37.181Z,612.00
2023-03-24T12:31:37.467Z,621.00
2023-03-24T12:36:34.751Z,614.00
2023-03-24T12:41:34.054Z,614.00
2023-03-24T12:46:44.852Z,611.00
2023-03-24T12:51:33.451Z,620.00
2023-03-24T12:56:32.790Z,612.00
2023-03-24T13:01:30.948Z,600.00
2023-03-24T13:06:31.053Z,612.00
2023-03-24T13:11:33.262Z,608.00
2023-03-24T13:16:29.649Z,612.00
2023-03-24T13:21:29.966Z,610.00
2023-03-24T13:26:27.249Z,607.00
2023-03-24T13:31:27.543Z,607.00
2023-03-24T13:36:26.880Z,611.00
2023-03-24T13:41:25.975Z,603.00
2023-03-24T13:46:25.378Z,601.00
2023-03-24T13:51:23.472Z,605.00
2023-03-24T13:56:23.796Z,606.00
2023-03-24T14:01:24.101Z,603.00
2023-03-24T14:06:20.371Z,595.00
2023-03-24T14:11:21.622Z,603.00
2023-03-24T14:16:19.904Z,610.00
2023-03-24T14:21:19.159Z,602.00
2023-03-24T14:26:18.411Z,611.00
2023-03-24T14:31:17.852Z,609.00
2023-03-24T14:36:16.972Z,614.00
2023-03-24T14:41:17.303Z,604.00
2023-03-24T14:46:16.601Z,614.00
2023-03-24T14:51:14.878Z,610.00
2023-03-24T14:56:15.161Z,619.00
2023-03-24T15:01:14.454Z,615.00
2023-03-24T15:06:12.754Z,613.00
2023-03-24T15:11:13.066Z,607.00
2023-03-24T15:16:11.448Z,614.00
2023-03-24T15:21:11.641Z,608.00
2023-03-24T15:26:10.919Z,608.00
2023-03-24T15:31:09.191Z,617.00
2023-03-24T15:36:08.515Z,611.00
2023-03-24T15:41:07.791Z,614.00
2023-03-24T15:46:12.493Z,610.00
2023-03-24T15:51:07.418Z,615.00
2023-03-24T15:56:06.653Z,614.00
2023-03-24T16:01:06.023Z,610.00
2023-03-24T16:06:06.261Z,616.00
2023-03-24T16:11:04.548Z,606.00
2023-03-24T16:16:02.801Z,597.00
2023-03-24T16:21:02.111Z,607.00
2023-03-24T16:26:01.409Z,620.00
2023-03-24T16:30:59.752Z,679.00
2023-03-24T16:35:59.954Z,677.00
2023-03-24T16:41:00.113Z,635.00
2023-03-24T16:45:58.459Z,650.00
2023-03-24T16:50:57.728Z,643.00
2023-03-24T16:55:57.953Z,657.00
2023-03-24T17:00:57.062Z,661.00
2023-03-24T17:05:55.373Z,679.00
2023-03-24T17:10:54.707Z,671.00
2023-03-24T17:15:54.051Z,708.00
2023-03-24T17:20:53.331Z,713.00
2023-03-24T17:25:52.646Z,693.00
2023-03-24T17:30:51.983Z,695.00
2023-03-24T17:35:51.332Z,708.00
2023-03-24T17:40:51.519Z,799.00
2023-03-24T17:45:49.663Z,768.00
2023-03-24T17:50:49.049Z,714.00
2023-03-24T17:55:49.410Z,706.00
2023-03-24T18:00:47.985Z,718.00
2023-03-24T18:05:46.817Z,738.00
2023-03-24T18:10:45.966Z,719.00
2023-03-24T18:15:45.125Z,726.00
2023-03-24T18:20:45.491Z,710.00
2023-03-24T18:25:43.727Z,694.00
2023-03-24T18:30:42.958Z,690.00
2023-03-24T18:35:42.205Z,726.00
2023-03-24T18:40:41.231Z,691.00
2023-03-24T18:45:40.525Z,684.00
2023-03-24T18:50:40.472Z,682.00
2023-03-24T18:55:40.048Z,686.00
2023-03-24T19:00:37.851Z,700.00
2023-03-24T19:05:38.376Z,735.00
2023-03-24T19:10:36.584Z,724.00
2023-03-24T19:15:36.592Z,669.00
2023-03-24T19:20:35.165Z,687.00
2023-03-24T19:25:36.326Z,655.00
2023-03-24T19:30:33.209Z,668.00
2023-03-24T19:35:32.755Z,639.00
2023-03-24T19:40:32.043Z,633.00
2023-03-24T19:45:31.231Z,638.00
2023-03-24T19:50:30.417Z,671.00
2023-03-24T19:55:31.669Z,678.00
2023-03-24T20:00:29.586Z,675.00
2023-03-24T20:05:28.521Z,697.00
2023-03-24T20:10:27.310Z,672.00
2023-03-24T20:15:27.587Z,649.00
2023-03-24T20:20:25.755Z,710.00
2023-03-24T20:25:24.909Z,666.00
2023-03-24T20:30:25.109Z,797.00
2023-03-24T20:35:23.355Z,695.00
2023-03-24T20:40:24.286Z,807.00
2023-03-24T20:45:21.935Z,773.00
2023-03-24T20:50:21.137Z,823.00
2023-03-24T20:55:20.366Z,720.00
2023-03-24T21:00:19.508Z,745.00
2023-03-24T21:05:18.841Z,766.00
2023-03-24T21:10:18.040Z,745.00
2023-03-24T21:15:18.153Z,728.00
2023-03-24T21:20:16.299Z,722.00
2023-03-24T21:25:16.644Z,725.00
2023-03-24T21:30:16.622Z,780.00
2023-03-24T21:35:13.788Z,767.00
2023-03-24T21:40:14.551Z,757.00
2023-03-24T21:45:12.363Z,900.00
2023-03-24T21:50:13.589Z,784.00
2023-03-24T21:55:10.791Z,784.00
2023-03-24T22:00:11.028Z,762.00
2023-03-24T22:05:09.181Z,885.00
2023-03-24T22:10:09.362Z,825.00
2023-03-24T22:15:07.529Z,818.00
2023-03-24T22:20:07.666Z,797.00
2023-03-24T22:25:08.825Z,843.00
2023-03-24T22:30:05.137Z,820.00
2023-03-24T22:35:04.447Z,823.00
2023-03-24T22:40:03.824Z,792.00
2023-03-24T22:45:03.995Z,971.00
2023-03-24T22:50:02.151Z,807.00
2023-03-24T22:55:01.322Z,824.00
2023-03-24T23:00:00.433Z,1051.00
2023-03-24T23:05:00.834Z,853.00
2023-03-24T23:09:58.986Z,822.00
2023-03-24T23:14:58.127Z,810.00
2023-03-24T23:19:57.280Z,983.00
2023-03-24T23:25:00.404Z,982.00
2023-03-24T23:29:55.599Z,814.00
2023-03-24T23:34:54.762Z,813.00
2023-03-24T23:39:53.918Z,854.00
2023-03-24T23:44:54.029Z,784.00
2023-03-24T23:49:52.357Z,740.00
2023-03-24T23:54:53.701Z,750.00
2023-03-24T23:59:51.019Z,881.00
